Terminal Aerodrome Forecast
Issued by NWS Lake Charles, LA

Home | Current Version | Previous Version | Text Only | Print | Product List | Glossary On
Versions: 1 2 3 4 5 6 7 8 9 10 11 12 13 14 15 16 17 18 19 20 21 22
000
FTUS44 KLCH 042300
TAFLFT
TAF
KLFT 042325Z 0500/0524 18009KT P6SM VCSH SCT015 OVC090
     FM050300 18006KT 4SM BR VCSH OVC015
     FM050800 35010G16KT 4SM RA BR OVC007
     FM051100 01022G30KT P6SM -RA OVC007
     FM052200 02022G30KT P6SM BKN015=

USA.gov is the U.S. government's official web portal to all federal, state and local government web resources and services.